Time;durP1;ratioP1;P1;durP2;ratioP2;P2;SDS_P1;SDS_P2;PMS_P1;PMS_P2;Temp;Humidity;BMP_temperature;BMP_pressure;BME280_temperature;BME280_humidity;BME280_pressure;Samples;Min_cycle;Max_cycle;Signal;HPM_P1;HPM_P2
2021/06/17 00:00:35;;;;;;;11.65;8.35;;;19.00;81.20;;;;;;5075179;28;20218;-85
2021/06/17 00:03:01;;;;;;;19.48;9.23;;;19.10;81.00;;;;;;5093546;28;20182;-85
2021/06/17 00:05:30;;;;;;;12.77;8.18;;;19.10;80.90;;;;;;5075387;28;20185;-84
2021/06/17 00:07:56;;;;;;;17.65;8.68;;;19.20;80.40;;;;;;5075399;28;20182;-84
2021/06/17 00:10:31;;;;;;;17.67;8.82;;;19.20;80.30;;;;;;5093202;28;20206;-84
2021/06/17 00:12:59;;;;;;;21.27;9.27;;;19.20;79.90;;;;;;5075285;28;20170;-84
2021/06/17 00:15:27;;;;;;;13.00;9.23;;;19.20;79.70;;;;;;5093641;28;20171;-84
2021/06/17 00:17:53;;;;;;;15.07;8.57;;;19.20;79.40;;;;;;5093872;28;20170;-84
2021/06/17 00:20:19;;;;;;;20.20;8.75;;;19.20;79.10;;;;;;5093285;28;20285;-84
2021/06/17 00:22:45;;;;;;;19.55;8.65;;;19.20;79.00;;;;;;5075167;28;20185;-84
2021/06/17 00:25:12;;;;;;;9.45;8.40;;;19.20;79.00;;;;;;5075071;28;20171;-84
2021/06/17 00:27:38;;;;;;;14.85;8.65;;;19.20;78.70;;;;;;5075049;28;20178;-84
2021/06/17 00:30:06;;;;;;;17.83;8.13;;;19.20;78.60;;;;;;5093056;28;20195;-84
2021/06/17 00:32:31;;;;;;;18.80;8.43;;;19.20;78.60;;;;;;5093128;28;20201;-84
2021/06/17 00:34:57;;;;;;;17.17;8.35;;;19.20;78.40;;;;;;5075095;28;20170;-84
2021/06/17 00:37:23;;;;;;;24.10;9.85;;;19.20;78.40;;;;;;5075134;28;20166;-84
2021/06/17 00:39:49;;;;;;;13.32;8.32;;;19.20;78.40;;;;;;5093390;28;20179;-84
2021/06/17 00:42:14;;;;;;;14.32;7.68;;;19.20;78.40;;;;;;5093123;28;20163;-85
2021/06/17 00:44:40;;;;;;;16.20;8.38;;;19.10;78.40;;;;;;5097041;28;20170;-84
2021/06/17 00:47:06;;;;;;;18.50;8.60;;;19.10;78.10;;;;;;5097178;28;20224;-84
2021/06/17 00:49:32;;;;;;;15.82;7.93;;;19.20;77.90;;;;;;5078929;28;20232;-84
2021/06/17 00:51:59;;;;;;;18.88;7.82;;;19.20;77.80;;;;;;5078857;28;20194;-84
2021/06/17 00:54:33;;;;;;;16.17;7.28;;;19.20;77.70;;;;;;5078850;28;20175;-84
2021/06/17 00:57:05;;;;;;;35.95;7.22;;;19.20;77.50;;;;;;5078924;28;20162;-84
2021/06/17 00:59:31;;;;;;;16.33;7.18;;;19.20;77.30;;;;;;5096998;28;20222;-84
2021/06/17 01:01:57;;;;;;;14.82;8.02;;;19.20;77.10;;;;;;5096751;28;20198;-84
2021/06/17 01:04:27;;;;;;;17.65;7.63;;;19.20;77.10;;;;;;5096754;28;20551;-84
2021/06/17 01:06:54;;;;;;;17.40;7.63;;;19.20;77.10;;;;;;5078557;28;20634;-84
2021/06/17 01:09:32;;;;;;;24.90;7.45;;;19.20;77.30;;;;;;5096720;28;20194;-84
2021/06/17 01:12:11;;;;;;;16.08;8.18;;;19.20;77.40;;;;;;5096553;28;20198;-84
2021/06/17 01:14:46;;;;;;;13.13;6.93;;;19.10;77.30;;;;;;5096640;28;20178;-84
2021/06/17 01:17:15;;;;;;;15.68;7.50;;;19.10;77.40;;;;;;5097111;28;20158;-84
2021/06/17 01:19:53;;;;;;;19.70;7.72;;;19.10;77.40;;;;;;5078348;28;20175;-84
2021/06/17 01:22:45;;;;;;;16.83;7.88;;;19.00;77.40;;;;;;5096867;28;20151;-84
2021/06/17 01:25:29;;;;;;;12.63;6.75;;;19.00;77.30;;;;;;5078283;28;20248;-84
2021/06/17 01:28:11;;;;;;;15.52;7.47;;;19.00;77.20;;;;;;5096421;28;20158;-84
2021/06/17 01:30:57;;;;;;;19.60;6.55;;;19.10;77.10;;;;;;5096409;28;20229;-84
2021/06/17 01:33:25;;;;;;;15.40;6.78;;;19.00;76.90;;;;;;5078289;28;20182;-84
2021/06/17 01:35:58;;;;;;;15.68;7.57;;;19.10;76.70;;;;;;5096378;28;20167;-84
2021/06/17 01:38:25;;;;;;;16.85;7.50;;;19.10;76.90;;;;;;5078169;28;20645;-84
2021/06/17 01:40:52;;;;;;;16.38;6.82;;;19.00;76.80;;;;;;5078067;28;20195;-84
2021/06/17 01:43:19;;;;;;;11.43;6.78;;;19.00;76.90;;;;;;5096445;28;20639;-84
2021/06/17 01:45:46;;;;;;;12.30;6.70;;;19.00;76.80;;;;;;5077961;28;20274;-84
2021/06/17 01:48:14;;;;;;;9.30;6.30;;;19.00;76.80;;;;;;5096170;28;20661;-84
2021/06/17 01:50:42;;;;;;;13.88;6.15;;;19.00;76.80;;;;;;5077619;28;20215;-84
2021/06/17 01:53:10;;;;;;;14.25;7.13;;;19.00;76.80;;;;;;5095854;28;20581;-84
2021/06/17 01:55:38;;;;;;;21.02;6.57;;;19.00;76.90;;;;;;5095270;28;20187;-84
2021/06/17 01:58:07;;;;;;;20.67;7.80;;;18.90;76.90;;;;;;5077595;28;20167;-84
2021/06/17 02:00:36;;;;;;;15.30;6.72;;;18.90;77.00;;;;;;5077547;28;20236;-84
2021/06/17 02:03:06;;;;;;;15.32;6.53;;;18.80;77.10;;;;;;5077554;28;20657;-84
2021/06/17 02:05:34;;;;;;;18.33;6.47;;;18.80;77.00;;;;;;5095895;28;20219;-84
2021/06/17 02:08:00;;;;;;;12.45;6.78;;;18.80;76.90;;;;;;5095641;28;20638;-84
2021/06/17 02:10:27;;;;;;;18.45;6.93;;;18.80;76.90;;;;;;5077333;28;20217;-84
2021/06/17 02:12:54;;;;;;;16.25;6.30;;;18.80;77.10;;;;;;5095558;28;20223;-84
2021/06/17 02:15:22;;;;;;;18.73;6.55;;;18.80;76.90;;;;;;5095582;28;20203;-84
2021/06/17 02:17:50;;;;;;;16.65;7.25;;;18.80;76.80;;;;;;5095459;28;20209;-84
2021/06/17 02:20:17;;;;;;;15.43;7.05;;;18.70;77.00;;;;;;5077113;28;20229;-84
2021/06/17 02:22:44;;;;;;;15.18;6.20;;;18.70;76.90;;;;;;5095325;28;20163;-84
2021/06/17 02:25:14;;;;;;;13.73;6.00;;;18.70;76.70;;;;;;5095509;28;20170;-84
2021/06/17 02:27:44;;;;;;;22.52;6.45;;;18.80;76.80;;;;;;5077104;28;20668;-84
2021/06/17 02:30:15;;;;;;;15.98;7.68;;;18.70;76.60;;;;;;5077728;28;20202;-84
2021/06/17 02:32:45;;;;;;;12.55;5.75;;;18.70;76.60;;;;;;5077020;28;20180;-84
2021/06/17 02:35:12;;;;;;;19.52;5.90;;;18.70;76.50;;;;;;5095841;28;20155;-84
2021/06/17 02:37:39;;;;;;;10.18;5.40;;;18.70;76.60;;;;;;5095035;28;20178;-84
2021/06/17 02:40:06;;;;;;;6.82;5.50;;;18.60;76.50;;;;;;5095227;28;20163;-84
2021/06/17 02:42:34;;;;;;;11.13;5.78;;;18.70;76.30;;;;;;5095058;28;20174;-85
2021/06/17 02:45:01;;;;;;;8.35;5.38;;;18.70;76.20;;;;;;5095307;28;20201;-84
2021/06/17 02:47:26;;;;;;;13.10;6.57;;;18.70;76.10;;;;;;5094944;28;20220;-84
2021/06/17 02:49:52;;;;;;;10.48;6.03;;;18.60;76.10;;;;;;5076530;28;20576;-83
2021/06/17 02:52:18;;;;;;;10.05;5.55;;;18.70;76.00;;;;;;5076632;28;20181;-84
2021/06/17 02:54:44;;;;;;;9.90;5.50;;;18.70;75.80;;;;;;5076535;28;20202;-84
2021/06/17 02:57:21;;;;;;;7.80;5.07;;;18.60;75.90;;;;;;5076623;28;20270;-84
2021/06/17 03:00:04;;;;;;;8.95;5.75;;;18.70;75.20;;;;;;5094670;28;20599;-84
2021/06/17 03:02:34;;;;;;;14.23;6.03;;;18.70;75.20;;;;;;5076965;28;20199;-84
2021/06/17 03:05:27;;;;;;;8.43;5.88;;;18.70;75.10;;;;;;5094614;28;20166;-84
2021/06/17 03:07:58;;;;;;;5.97;5.28;;;18.80;75.00;;;;;;5075492;28;20171;-84
2021/06/17 03:10:25;;;;;;;7.55;5.30;;;18.80;74.80;;;;;;5094354;28;20685;-84
2021/06/17 03:12:52;;;;;;;7.05;5.38;;;18.80;74.70;;;;;;5094407;28;20253;-84
2021/06/17 03:15:19;;;;;;;14.20;5.55;;;18.80;74.70;;;;;;5076275;28;20352;-84
2021/06/17 03:17:49;;;;;;;7.07;5.07;;;18.80;74.60;;;;;;5076220;28;20178;-84
2021/06/17 03:20:17;;;;;;;7.05;5.00;;;18.80;74.50;;;;;;5076106;28;20195;-84
2021/06/17 03:22:48;;;;;;;11.70;5.78;;;18.90;74.50;;;;;;5094512;28;20167;-84
2021/06/17 03:25:17;;;;;;;8.27;5.13;;;18.80;74.70;;;;;;5094212;28;20162;-84
2021/06/17 03:27:48;;;;;;;8.63;5.47;;;18.80;74.90;;;;;;5075985;28;20174;-84
2021/06/17 03:30:14;;;;;;;11.15;6.38;;;18.80;75.00;;;;;;5093981;28;20293;-84
2021/06/17 03:32:41;;;;;;;8.88;5.38;;;18.80;75.30;;;;;;5094332;28;20657;-84
2021/06/17 03:35:09;;;;;;;10.13;5.70;;;18.70;75.50;;;;;;5075772;28;20171;-85
2021/06/17 03:37:34;;;;;;;15.65;5.97;;;18.70;75.50;;;;;;5075829;28;20259;-85
2021/06/17 03:40:01;;;;;;;12.13;5.57;;;18.70;75.70;;;;;;5075682;28;20659;-84
2021/06/17 03:42:28;;;;;;;8.70;5.47;;;18.70;75.70;;;;;;5075809;28;20185;-84
2021/06/17 03:44:56;;;;;;;9.18;5.35;;;18.80;75.70;;;;;;5093847;28;20194;-84
2021/06/17 03:47:23;;;;;;;9.73;5.28;;;18.80;75.70;;;;;;5093779;28;20220;-84
2021/06/17 03:49:51;;;;;;;10.35;5.78;;;18.80;75.40;;;;;;5075475;28;20267;-85
2021/06/17 03:52:17;;;;;;;15.18;6.03;;;18.80;75.60;;;;;;5093647;28;20167;-84
2021/06/17 03:54:44;;;;;;;15.18;5.47;;;18.90;75.50;;;;;;5093661;28;20174;-84
2021/06/17 03:57:10;;;;;;;8.98;5.88;;;19.00;75.50;;;;;;5093686;28;20250;-84
2021/06/17 03:59:40;;;;;;;17.75;5.57;;;18.90;75.50;;;;;;5093580;28;20163;-84
2021/06/17 04:02:06;;;;;;;8.90;5.40;;;19.00;75.40;;;;;;5093412;28;20199;-84
2021/06/17 04:04:32;;;;;;;6.85;5.25;;;19.00;75.50;;;;;;5075483;28;20265;-84
2021/06/17 04:07:01;;;;;;;8.60;5.38;;;19.10;75.40;;;;;;5093462;28;20163;-84
2021/06/17 04:09:31;;;;;;;8.23;5.88;;;19.10;75.20;;;;;;5075318;28;20178;-84
2021/06/17 04:12:02;;;;;;;10.82;5.38;;;19.20;74.80;;;;;;5093339;28;20296;-84
2021/06/17 04:14:30;;;;;;;14.93;5.50;;;19.30;74.80;;;;;;5075223;28;20257;-84
2021/06/17 04:16:56;;;;;;;9.07;5.55;;;19.30;74.70;;;;;;5093440;28;20174;-84
2021/06/17 04:19:25;;;;;;;9.00;5.90;;;19.40;74.80;;;;;;5074895;28;20170;-84
2021/06/17 04:21:55;;;;;;;6.07;5.45;;;19.40;74.80;;;;;;5075086;28;20194;-84
2021/06/17 04:24:22;;;;;;;12.38;5.88;;;19.50;74.80;;;;;;5075193;28;20174;-84
2021/06/17 04:26:50;;;;;;;11.13;5.80;;;19.50;74.80;;;;;;5093279;28;20646;-84
2021/06/17 04:29:17;;;;;;;10.30;5.82;;;19.50;74.90;;;;;;5075103;28;20178;-84
2021/06/17 04:31:49;;;;;;;8.07;5.55;;;19.50;75.20;;;;;;5093106;28;20263;-84
2021/06/17 04:34:16;;;;;;;10.25;5.55;;;19.60;75.30;;;;;;5075158;28;20174;-84
2021/06/17 04:36:42;;;;;;;10.18;5.40;;;19.60;75.40;;;;;;5093190;28;20189;-84
2021/06/17 04:39:08;;;;;;;9.60;5.65;;;19.70;75.40;;;;;;5093133;28;20159;-85
2021/06/17 04:41:36;;;;;;;10.70;5.53;;;19.70;75.40;;;;;;5074890;28;20194;-84
2021/06/17 04:44:03;;;;;;;10.93;5.82;;;19.70;75.50;;;;;;5093048;28;20198;-85
2021/06/17 04:46:31;;;;;;;7.90;4.97;;;19.70;75.50;;;;;;5093054;28;20638;-85
2021/06/17 04:48:58;;;;;;;9.57;6.03;;;19.80;75.50;;;;;;5074911;28;20182;-84
2021/06/17 04:51:27;;;;;;;15.50;5.78;;;19.80;75.40;;;;;;5092868;28;20202;-84
2021/06/17 04:53:54;;;;;;;7.35;5.25;;;19.90;75.20;;;;;;5074890;28;20247;-84
2021/06/17 04:56:20;;;;;;;11.88;5.75;;;20.00;75.80;;;;;;5074873;28;20171;-85
2021/06/17 04:58:49;;;;;;;15.57;6.07;;;20.00;75.60;;;;;;5074858;28;20223;-85
2021/06/17 05:01:17;;;;;;;8.85;5.75;;;20.00;75.80;;;;;;5093105;28;20239;-84
2021/06/17 05:03:43;;;;;;;10.27;5.30;;;20.20;75.40;;;;;;5092907;28;20178;-84
2021/06/17 05:06:10;;;;;;;9.68;5.90;;;20.20;75.60;;;;;;5092914;28;20175;-84
2021/06/17 05:11:21;;;;;;;9.00;5.47;;;20.30;75.00;;;;;;5092861;28;20581;-84
2021/06/17 05:13:46;;;;;;;7.22;5.75;;;20.40;74.50;;;;;;5074632;28;20171;-84
2021/06/17 05:16:12;;;;;;;8.95;5.72;;;20.50;74.90;;;;;;5092802;28;20275;-84
2021/06/17 05:18:38;;;;;;;12.13;5.55;;;20.60;74.30;;;;;;5092752;28;20176;-85
2021/06/17 05:21:04;;;;;;;11.23;6.18;;;20.70;74.20;;;;;;5092656;28;20190;-84
2021/06/17 05:23:30;;;;;;;7.25;5.82;;;20.80;74.20;;;;;;5092736;28;20197;-84
2021/06/17 05:25:58;;;;;;;10.43;5.60;;;21.00;73.30;;;;;;5092718;28;20646;-85
2021/06/17 05:28:26;;;;;;;7.50;5.63;;;21.10;73.40;;;;;;5074575;28;20261;-85
2021/06/17 05:31:00;;;;;;;10.93;5.72;;;21.20;72.80;;;;;;5076726;28;20558;-84
2021/06/17 05:33:27;;;;;;;12.77;5.97;;;21.40;72.40;;;;;;5096312;28;20157;-85
2021/06/17 05:35:53;;;;;;;8.68;5.30;;;21.50;72.70;;;;;;5078105;28;20656;-85
2021/06/17 05:38:21;;;;;;;11.27;5.60;;;21.70;72.40;;;;;;5096251;28;20245;-85
2021/06/17 05:40:47;;;;;;;6.55;5.35;;;21.80;71.60;;;;;;5096162;28;20692;-84
2021/06/17 05:43:13;;;;;;;8.30;5.15;;;22.00;71.10;;;;;;5096172;28;20261;-85
2021/06/17 05:45:40;;;;;;;8.35;5.90;;;22.00;68.90;;;;;;5078045;28;20274;-85
2021/06/17 05:48:06;;;;;;;10.50;5.75;;;22.00;69.10;;;;;;5096048;28;20182;-85
2021/06/17 05:50:32;;;;;;;7.72;5.63;;;22.10;69.90;;;;;;5095805;28;20202;-85
2021/06/17 05:52:57;;;;;;;10.50;5.90;;;22.20;68.80;;;;;;5077846;28;20175;-85
2021/06/17 05:55:23;;;;;;;13.15;5.47;;;22.20;68.60;;;;;;5077803;28;20516;-85
2021/06/17 05:57:49;;;;;;;6.53;5.22;;;22.30;68.80;;;;;;5095944;28;20171;-85
2021/06/17 06:00:16;;;;;;;12.23;5.75;;;22.40;69.00;;;;;;5095633;28;20229;-85
2021/06/17 06:02:42;;;;;;;16.15;5.82;;;22.50;68.50;;;;;;5096030;28;20158;-85
2021/06/17 06:05:08;;;;;;;10.10;5.55;;;22.80;67.60;;;;;;5096061;28;20635;-85
2021/06/17 06:07:34;;;;;;;10.35;5.90;;;23.00;67.90;;;;;;5077577;28;20175;-85
2021/06/17 06:10:00;;;;;;;11.27;5.72;;;23.10;68.10;;;;;;5095477;28;20198;-85
2021/06/17 06:12:26;;;;;;;15.55;6.55;;;23.20;68.10;;;;;;5077519;28;20217;-85
2021/06/17 06:14:51;;;;;;;10.73;5.88;;;23.40;67.70;;;;;;5077455;28;20224;-85
2021/06/17 06:17:17;;;;;;;12.75;5.95;;;23.40;66.90;;;;;;5095534;28;20170;-85
2021/06/17 06:19:43;;;;;;;10.85;6.18;;;23.50;66.80;;;;;;5077316;28;20181;-86
2021/06/17 06:22:09;;;;;;;9.07;6.07;;;23.60;66.60;;;;;;5077183;28;20677;-85
2021/06/17 06:24:36;;;;;;;11.50;6.32;;;23.70;67.10;;;;;;5095400;28;20163;-85
2021/06/17 06:27:06;;;;;;;9.25;6.18;;;23.80;65.80;;;;;;5077126;28;20179;-85
2021/06/17 06:29:33;;;;;;;13.45;5.70;;;23.70;65.50;;;;;;5095859;28;20170;-85
2021/06/17 06:31:58;;;;;;;9.55;6.20;;;23.80;64.70;;;;;;5076971;28;20578;-85
2021/06/17 06:34:25;;;;;;;13.63;6.20;;;23.90;65.10;;;;;;5095217;28;20163;-85
2021/06/17 06:36:51;;;;;;;10.90;6.18;;;23.90;65.50;;;;;;5095078;28;20167;-85
2021/06/17 06:39:18;;;;;;;6.60;5.85;;;23.90;65.30;;;;;;5077035;28;20703;-85
2021/06/17 06:41:44;;;;;;;13.63;6.38;;;23.90;64.60;;;;;;5094759;28;20196;-85
2021/06/17 06:44:10;;;;;;;9.27;6.25;;;23.90;64.60;;;;;;5076837;28;20171;-85
2021/06/17 06:46:41;;;;;;;12.80;6.05;;;24.20;64.70;;;;;;5076809;28;20181;-85
2021/06/17 06:49:07;;;;;;;6.53;5.75;;;24.20;64.10;;;;;;5094864;28;20159;-85
2021/06/17 06:51:38;;;;;;;8.38;6.35;;;24.20;64.30;;;;;;5094754;28;20715;-85
2021/06/17 06:54:04;;;;;;;6.43;5.72;;;24.30;64.20;;;;;;5076756;28;20177;-85
2021/06/17 06:56:30;;;;;;;8.68;5.55;;;24.30;65.10;;;;;;5095043;28;20266;-85
2021/06/17 06:58:55;;;;;;;10.25;6.05;;;24.50;63.10;;;;;;5094980;28;20163;-85
2021/06/17 07:01:21;;;;;;;6.55;5.75;;;24.60;61.40;;;;;;5094643;28;20220;-85
2021/06/17 07:03:46;;;;;;;12.23;5.95;;;24.70;63.10;;;;;;5077343;28;20538;-84
2021/06/17 07:06:12;;;;;;;12.80;6.47;;;24.70;62.80;;;;;;5094609;28;20186;-85
2021/06/17 07:08:38;;;;;;;13.13;6.75;;;24.80;62.10;;;;;;5094845;28;20190;-85
2021/06/17 07:11:03;;;;;;;9.82;6.07;;;25.00;61.70;;;;;;5076181;28;20213;-85
2021/06/17 07:13:29;;;;;;;11.23;6.68;;;25.10;63.90;;;;;;5076297;28;20197;-85
2021/06/17 07:15:55;;;;;;;12.18;5.88;;;25.10;62.30;;;;;;5094357;28;20197;-85
2021/06/17 07:18:21;;;;;;;14.48;6.03;;;25.20;61.80;;;;;;5076275;28;20178;-85
2021/06/17 07:20:47;;;;;;;13.30;6.45;;;25.20;62.30;;;;;;5094222;28;20195;-85
2021/06/17 07:23:13;;;;;;;12.38;5.82;;;25.40;62.60;;;;;;5094231;28;20171;-85
2021/06/17 07:25:38;;;;;;;13.20;6.47;;;25.40;62.00;;;;;;5076338;28;20171;-85
2021/06/17 07:28:05;;;;;;;9.10;6.43;;;25.50;62.00;;;;;;5076162;28;20269;-85
2021/06/17 07:30:31;;;;;;;6.78;6.05;;;25.70;61.90;;;;;;5075878;28;20202;-85
2021/06/17 07:32:57;;;;;;;12.88;6.95;;;25.70;61.30;;;;;;5094052;28;20262;-85
2021/06/17 07:35:23;;;;;;;12.90;6.72;;;25.80;61.90;;;;;;5095444;28;20206;-85
2021/06/17 07:37:50;;;;;;;13.90;6.35;;;25.80;60.90;;;;;;5076162;28;20170;-85
2021/06/17 07:40:17;;;;;;;9.38;6.13;;;25.80;61.40;;;;;;5093985;28;20567;-85
2021/06/17 07:42:43;;;;;;;10.70;6.53;;;25.90;61.40;;;;;;5075698;28;20193;-85
2021/06/17 07:45:10;;;;;;;14.05;6.28;;;26.00;62.10;;;;;;5075876;28;20186;-85
2021/06/17 07:47:37;;;;;;;14.73;6.93;;;26.00;60.70;;;;;;5093893;28;20167;-85
2021/06/17 07:50:05;;;;;;;17.65;6.68;;;26.10;61.30;;;;;;5075510;28;20253;-85
2021/06/17 07:52:31;;;;;;;8.63;6.30;;;26.00;60.60;;;;;;5093275;28;20162;-85
2021/06/17 07:54:56;;;;;;;9.18;6.40;;;26.20;60.80;;;;;;5075528;28;20174;-85
2021/06/17 07:57:22;;;;;;;11.60;6.53;;;26.20;62.20;;;;;;5093975;28;20544;-85
2021/06/17 07:59:47;;;;;;;15.07;6.82;;;26.40;61.30;;;;;;5094218;28;20197;-85
2021/06/17 08:02:13;;;;;;;11.02;7.22;;;26.40;60.50;;;;;;5153815;22;20272;-85
2021/06/17 08:04:38;;;;;;;9.43;6.28;;;26.60;62.10;;;;;;5073377;28;20541;-85
2021/06/17 08:07:04;;;;;;;9.98;6.63;;;26.70;61.20;;;;;;5055372;28;20172;-85
2021/06/17 08:09:30;;;;;;;14.77;6.25;;;26.80;60.30;;;;;;5055383;28;20266;-86
2021/06/17 08:11:56;;;;;;;10.50;6.38;;;26.90;60.80;;;;;;5073069;28;20203;-85
2021/06/17 08:14:24;;;;;;;11.70;6.40;;;27.00;61.40;;;;;;5055276;28;20179;-85
2021/06/17 08:16:51;;;;;;;11.43;6.30;;;27.10;56.80;;;;;;5073490;28;20527;-85
2021/06/17 08:19:17;;;;;;;9.75;6.35;;;27.10;59.10;;;;;;5055117;28;20221;-86
2021/06/17 08:21:42;;;;;;;12.27;6.70;;;27.20;59.70;;;;;;5073153;28;20195;-84
2021/06/17 08:24:09;;;;;;;15.23;6.45;;;27.30;59.60;;;;;;5055243;28;20205;-86
2021/06/17 08:26:35;;;;;;;10.10;6.10;;;27.40;58.80;;;;;;5073086;28;20168;-85
2021/06/17 08:29:02;;;;;;;13.80;6.15;;;27.50;59.00;;;;;;5073124;28;20168;-85
2021/06/17 08:31:28;;;;;;;11.20;6.60;;;27.80;57.60;;;;;;5072828;28;20702;-85
2021/06/17 08:33:55;;;;;;;15.18;6.38;;;27.80;57.20;;;;;;5073072;28;20182;-86
2021/06/17 08:36:20;;;;;;;13.00;6.40;;;28.00;58.80;;;;;;5055022;28;20171;-86
2021/06/17 08:38:46;;;;;;;16.27;6.20;;;28.10;59.40;;;;;;5055045;28;20312;-86
2021/06/17 08:41:13;;;;;;;8.63;6.10;;;28.20;56.30;;;;;;5054980;28;20228;-85
2021/06/17 08:43:38;;;;;;;12.63;5.78;;;28.40;58.10;;;;;;5073007;28;20171;-86
2021/06/17 08:46:05;;;;;;;9.50;5.90;;;28.50;54.80;;;;;;5054874;28;20182;-85
2021/06/17 08:48:31;;;;;;;9.35;5.75;;;28.70;55.70;;;;;;5072999;28;20170;-86
2021/06/17 08:50:57;;;;;;;11.27;6.50;;;28.60;54.30;;;;;;5054838;28;20240;-86
2021/06/17 08:53:23;;;;;;;10.70;5.80;;;28.70;54.20;;;;;;5072863;28;20195;-86
2021/06/17 08:55:49;;;;;;;12.90;5.80;;;29.00;53.70;;;;;;5055004;28;20171;-86
2021/06/17 08:58:15;;;;;;;9.85;5.50;;;29.10;52.90;;;;;;5054869;28;20556;-85
2021/06/17 09:00:43;;;;;;;8.93;5.50;;;29.10;53.00;;;;;;5054776;28;20180;-85
2021/06/17 09:03:11;;;;;;;9.65;5.25;;;29.20;54.70;;;;;;5072595;28;20687;-86
2021/06/17 09:05:39;;;;;;;13.20;5.28;;;29.30;54.10;;;;;;5057002;28;20557;-85
2021/06/17 09:08:07;;;;;;;9.27;5.90;;;29.50;55.40;;;;;;5076520;28;20225;-86
2021/06/17 09:10:34;;;;;;;7.72;5.22;;;29.70;56.20;;;;;;5076423;28;20195;-86
2021/06/17 09:13:03;;;;;;;5.30;4.68;;;29.80;54.60;;;;;;5058530;28;20236;-85
2021/06/17 09:15:38;;;;;;;9.50;5.85;;;29.80;52.70;;;;;;5058788;28;20209;-86
2021/06/17 09:18:24;;;;;;;17.38;5.50;;;30.00;53.10;;;;;;5077128;28;20566;-84
2021/06/17 09:21:01;;;;;;;13.68;5.07;;;30.10;54.90;;;;;;5058711;28;20170;-85
2021/06/17 09:23:47;;;;;;;13.55;5.53;;;30.20;52.50;;;;;;5076238;28;20670;-85
2021/06/17 09:26:20;;;;;;;9.95;4.90;;;30.20;51.60;;;;;;5076326;28;20210;-85
2021/06/17 09:29:09;;;;;;;12.70;5.47;;;30.30;50.50;;;;;;5076278;28;20163;-85
2021/06/17 09:31:42;;;;;;;9.13;4.88;;;30.40;52.40;;;;;;5076342;28;20199;-84
2021/06/17 09:34:14;;;;;;;8.18;5.20;;;30.50;53.20;;;;;;5076090;28;20647;-84
2021/06/17 09:36:40;;;;;;;14.98;4.60;;;30.50;52.70;;;;;;5076682;28;20152;-85
2021/06/17 09:39:19;;;;;;;8.35;4.60;;;30.70;50.00;;;;;;5058157;28;20172;-85
2021/06/17 09:41:53;;;;;;;8.60;4.72;;;30.80;51.10;;;;;;5075897;28;20191;-85
2021/06/17 09:44:41;;;;;;;8.48;5.00;;;31.10;47.20;;;;;;5058000;28;20179;-85
2021/06/17 09:47:08;;;;;;;8.35;4.32;;;31.10;49.40;;;;;;5076129;28;20558;-85
2021/06/17 09:49:39;;;;;;;9.35;4.20;;;31.00;46.70;;;;;;5075805;28;20578;-85
2021/06/17 09:52:05;;;;;;;8.20;4.35;;;31.10;48.20;;;;;;5075687;28;20547;-85
2021/06/17 09:54:32;;;;;;;5.72;4.55;;;31.20;48.70;;;;;;5057799;28;20254;-86
2021/06/17 09:57:04;;;;;;;8.07;4.65;;;31.40;48.60;;;;;;5057764;28;20202;-86
2021/06/17 09:59:37;;;;;;;6.85;4.05;;;31.60;47.40;;;;;;5075599;28;20662;-86
2021/06/17 10:02:04;;;;;;;6.05;4.30;;;31.70;47.50;;;;;;5075396;28;20585;-86
2021/06/17 10:04:30;;;;;;;11.35;4.50;;;31.70;46.90;;;;;;5075553;28;20167;-86
2021/06/17 10:06:57;;;;;;;6.82;4.50;;;31.80;46.40;;;;;;5075752;28;20184;-85
2021/06/17 10:09:23;;;;;;;5.82;4.50;;;31.90;46.20;;;;;;5075515;28;20269;-85
2021/06/17 10:11:50;;;;;;;9.80;4.80;;;32.00;46.10;;;;;;5057336;28;20600;-86
2021/06/17 10:14:15;;;;;;;8.70;4.90;;;31.90;47.90;;;;;;5075579;28;20179;-86
2021/06/17 10:16:45;;;;;;;8.40;4.63;;;32.00;46.30;;;;;;5074969;28;20168;-86
2021/06/17 10:19:12;;;;;;;13.85;4.93;;;31.80;46.80;;;;;;5057346;28;20176;-85
2021/06/17 10:21:38;;;;;;;9.65;4.53;;;32.00;46.40;;;;;;5075433;28;20205;-85
2021/06/17 10:24:13;;;;;;;10.63;4.68;;;32.00;46.40;;;;;;5075742;28;20258;-85
2021/06/17 10:26:45;;;;;;;10.90;5.10;;;32.10;45.00;;;;;;5075248;28;20159;-85
2021/06/17 10:29:27;;;;;;;9.02;4.72;;;32.10;46.20;;;;;;5057190;28;20176;-85
2021/06/17 10:31:57;;;;;;;8.20;4.35;;;32.20;46.10;;;;;;5075112;28;20207;-85
2021/06/17 10:34:23;;;;;;;10.65;4.78;;;32.20;46.40;;;;;;5075300;28;20221;-85
2021/06/17 10:37:10;;;;;;;11.90;5.53;;;32.30;47.00;;;;;;5057092;28;20635;-85
2021/06/17 10:39:48;;;;;;;9.05;4.88;;;32.50;46.20;;;;;;5074933;28;20250;-85
2021/06/17 10:42:14;;;;;;;10.23;4.95;;;32.60;44.80;;;;;;5075135;28;20195;-85
2021/06/17 10:44:45;;;;;;;8.30;5.15;;;32.70;45.90;;;;;;5056915;28;20301;-85
2021/06/17 10:47:46;;;;;;;13.82;5.18;;;32.60;46.80;;;;;;5056870;28;20171;-86
2021/06/17 10:50:22;;;;;;;7.68;5.10;;;32.70;46.10;;;;;;5056889;28;20565;-85
2021/06/17 10:52:52;;;;;;;7.65;4.95;;;32.70;46.10;;;;;;5057691;28;20191;-85
2021/06/17 10:55:31;;;;;;;11.88;5.70;;;32.90;43.90;;;;;;5078729;28;20592;-84
2021/06/17 10:57:57;;;;;;;7.22;4.97;;;32.70;45.90;;;;;;5061540;28;20538;-85
2021/06/17 11:00:28;;;;;;;5.95;5.28;;;32.40;45.30;;;;;;5060768;28;20550;-86
2021/06/17 11:03:05;;;;;;;11.18;4.85;;;32.60;44.90;;;;;;5078717;28;20217;-85
2021/06/17 11:05:39;;;;;;;8.25;4.95;;;32.60;44.60;;;;;;5078548;28;20179;-84
2021/06/17 11:08:22;;;;;;;11.13;5.40;;;32.80;44.20;;;;;;5078239;28;20187;-84
2021/06/17 11:11:05;;;;;;;11.20;5.28;;;32.80;45.80;;;;;;5058626;28;20706;-84
2021/06/17 11:13:38;;;;;;;6.60;5.55;;;32.80;43.30;;;;;;5077352;28;20249;-85
2021/06/17 11:16:30;;;;;;;8.18;4.95;;;32.90;43.90;;;;;;5060176;28;20715;-86
2021/06/17 11:21:23;;;;;;;10.20;5.57;;;32.80;44.90;;;;;;5077110;28;20203;-85
2021/06/17 11:24:10;;;;;;;6.13;5.38;;;32.90;44.50;;;;;;5042583;28;20195;-85
2021/06/17 11:26:46;;;;;;;10.00;4.97;;;33.00;43.30;;;;;;5077167;28;20170;-85
2021/06/17 11:29:16;;;;;;;10.98;5.43;;;33.10;43.50;;;;;;5076683;28;20246;-85
2021/06/17 11:31:44;;;;;;;7.82;5.53;;;33.20;43.00;;;;;;5058245;28;20207;-85
2021/06/17 11:34:38;;;;;;;7.97;5.57;;;33.40;44.10;;;;;;5058629;28;20171;-86
2021/06/17 11:37:13;;;;;;;11.02;5.72;;;33.40;44.10;;;;;;5059665;28;20186;-85
2021/06/17 11:39:40;;;;;;;10.40;5.88;;;33.50;44.40;;;;;;5058190;28;20203;-84
2021/06/17 11:42:11;;;;;;;7.70;5.18;;;33.60;43.10;;;;;;5058774;28;20655;-85
2021/06/17 11:44:37;;;;;;;9.15;4.70;;;33.60;43.30;;;;;;5077243;28;20159;-85
2021/06/17 11:47:09;;;;;;;9.13;5.45;;;33.40;41.50;;;;;;5074178;28;20262;-84
2021/06/17 11:49:38;;;;;;;8.23;5.40;;;33.60;43.00;;;;;;5055798;28;20180;-84
2021/06/17 11:52:14;;;;;;;8.57;4.88;;;33.60;41.80;;;;;;5055611;28;20237;-84
2021/06/17 11:54:40;;;;;;;9.00;4.88;;;33.60;41.00;;;;;;5074385;28;20147;-85
2021/06/17 11:57:06;;;;;;;8.80;4.80;;;33.70;41.20;;;;;;5074364;28;20217;-84
2021/06/17 11:59:35;;;;;;;8.55;5.35;;;33.70;42.60;;;;;;5074138;28;20167;-85
2021/06/17 12:02:09;;;;;;;11.98;5.20;;;33.30;44.00;;;;;;5055655;28;20218;-85
2021/06/17 12:05:11;;;;;;;10.77;5.30;;;33.50;43.80;;;;;;5055610;28;20635;-85
2021/06/17 12:07:49;;;;;;;7.07;4.60;;;33.70;41.70;;;;;;5070165;28;20186;-86
2021/06/17 12:10:22;;;;;;;7.40;4.75;;;33.70;42.00;;;;;;5073305;28;20191;-86
2021/06/17 12:12:58;;;;;;;5.07;4.03;;;33.80;40.80;;;;;;5055455;28;20246;-86
2021/06/17 12:15:27;;;;;;;6.53;3.55;;;34.00;42.10;;;;;;5055780;28;20171;-86
2021/06/17 12:17:57;;;;;;;6.85;3.70;;;34.00;38.60;;;;;;5074039;28;20167;-86
2021/06/17 12:20:25;;;;;;;4.47;3.42;;;34.30;39.70;;;;;;5055427;28;20175;-85
2021/06/17 12:22:56;;;;;;;4.78;3.60;;;33.60;38.10;;;;;;5055154;28;20196;-86
2021/06/17 12:25:24;;;;;;;7.00;3.08;;;33.90;37.70;;;;;;5073322;28;20655;-86
2021/06/17 12:27:50;;;;;;;7.28;3.83;;;33.70;36.60;;;;;;5055531;28;20248;-86
2021/06/17 12:30:27;;;;;;;3.97;3.08;;;33.70;37.90;;;;;;5055462;28;20252;-86
2021/06/17 12:32:55;;;;;;;3.53;3.20;;;33.80;38.20;;;;;;5073171;28;20666;-86
2021/06/17 12:35:23;;;;;;;5.28;3.33;;;33.80;37.90;;;;;;5073342;28;20631;-86
2021/06/17 12:37:57;;;;;;;8.13;4.22;;;34.00;36.90;;;;;;5073469;28;20171;-86
2021/06/17 12:40:28;;;;;;;8.20;5.43;;;34.20;36.00;;;;;;5058631;28;20707;-85
2021/06/17 12:43:24;;;;;;;4.90;3.58;;;34.00;35.10;;;;;;5059235;28;20233;-86
2021/06/17 12:46:04;;;;;;;6.35;4.05;;;33.70;37.20;;;;;;5059541;28;20550;-86
2021/06/17 12:54:22;;;;;;;4.72;3.70;;;33.90;36.60;;;;;;5077589;28;20186;-86
2021/06/17 12:57:14;;;;;;;6.05;3.85;;;33.70;37.20;;;;;;5058979;28;20220;-86
2021/06/17 12:59:47;;;;;;;8.85;5.45;;;33.50;37.90;;;;;;5076939;28;20239;-86
2021/06/17 13:02:36;;;;;;;4.97;3.28;;;33.90;36.40;;;;;;5076667;28;20206;-85